Time;durP1;ratioP1;P1;durP2;ratioP2;P2;SDS_P1;SDS_P2;PMS_P1;PMS_P2;Temp;Humidity;BMP_temperature;BMP_pressure;BME280_temperature;BME280_humidity;BME280_pressure;Samples;Min_cycle;Max_cycle;Signal;HPM_P1;HPM_P2
2024/01/29 00:00:21;;;;;;;5.83;4.27;;;;;;;;;;4966167;28;20945;-87
2024/01/29 00:03:25;;;;;;;6.60;4.17;;;;;;;;;;4965505;28;20550;-87
2024/01/29 00:06:29;;;;;;;8.87;4.40;;;;;;;;;;4965468;28;20558;-87
2024/01/29 00:09:33;;;;;;;4.43;3.87;;;;;;;;;;4955087;28;21087;-87
2024/01/29 00:12:38;;;;;;;4.60;3.17;;;;;;;;;;4954623;28;20657;-87
2024/01/29 00:15:42;;;;;;;4.67;3.50;;;;;;;;;;4943991;28;20543;-87
2024/01/29 00:18:47;;;;;;;5.50;3.97;;;;;;;;;;4977248;28;20539;-87
2024/01/29 00:21:51;;;;;;;6.10;3.57;;;;;;;;;;4965783;28;20622;-87
2024/01/29 00:24:56;;;;;;;5.97;3.83;;;;;;;;;;4965450;28;20554;-87
2024/01/29 00:28:00;;;;;;;9.83;5.50;;;;;;;;;;4965739;28;20543;-88
2024/01/29 00:31:07;;;;;;;10.37;6.63;;;;;;;;;;4965592;28;20622;-87
2024/01/29 00:34:12;;;;;;;11.97;6.40;;;;;;;;;;4965666;28;21110;-87
2024/01/29 00:37:19;;;;;;;11.83;6.57;;;;;;;;;;4954709;28;20546;-87
2024/01/29 00:40:25;;;;;;;5.90;4.33;;;;;;;;;;4965452;28;20598;-87
2024/01/29 00:43:29;;;;;;;6.27;4.30;;;;;;;;;;4976781;28;20543;-87
2024/01/29 00:46:33;;;;;;;6.60;4.37;;;;;;;;;;4943148;28;20538;-87
2024/01/29 00:49:38;;;;;;;6.13;3.67;;;;;;;;;;4965558;28;20542;-87
2024/01/29 00:52:42;;;;;;;7.53;4.83;;;;;;;;;;4976278;28;20964;-87
2024/01/29 00:55:48;;;;;;;8.80;4.90;;;;;;;;;;4976071;28;20546;-87
2024/01/29 00:58:52;;;;;;;8.40;5.50;;;;;;;;;;4965557;28;20567;-87
2024/01/29 01:01:57;;;;;;;8.17;4.63;;;;;;;;;;4954038;28;20626;-87
2024/01/29 01:05:01;;;;;;;8.87;5.40;;;;;;;;;;4965245;28;20535;-88
2024/01/29 01:08:05;;;;;;;6.27;4.77;;;;;;;;;;4965083;28;20539;-87
2024/01/29 01:11:09;;;;;;;6.43;4.50;;;;;;;;;;4953910;28;20653;-87
2024/01/29 01:14:13;;;;;;;7.90;4.60;;;;;;;;;;4981528;28;20547;-87
2024/01/29 01:17:18;;;;;;;6.43;4.63;;;;;;;;;;4965628;28;20550;-87
2024/01/29 01:20:24;;;;;;;7.73;4.80;;;;;;;;;;4968121;28;20594;-87
2024/01/29 01:23:28;;;;;;;12.97;5.33;;;;;;;;;;4957164;28;20543;-87
2024/01/29 01:26:32;;;;;;;12.70;5.53;;;;;;;;;;4968158;28;20543;-87
2024/01/29 01:29:36;;;;;;;10.27;4.53;;;;;;;;;;4967858;28;20543;-87
2024/01/29 01:33:05;;;;;;;12.27;4.10;;;;;;;;;;4957206;28;20698;-86
2024/01/29 01:36:14;;;;;;;6.60;4.47;;;;;;;;;;4957709;28;20531;-88
2024/01/29 01:39:18;;;;;;;7.27;4.23;;;;;;;;;;4956070;28;20602;-88
2024/01/29 01:42:22;;;;;;;5.13;3.90;;;;;;;;;;4967564;28;20618;-87
2024/01/29 01:45:28;;;;;;;5.77;3.77;;;;;;;;;;4967555;28;20546;-87
2024/01/29 01:48:34;;;;;;;8.07;4.47;;;;;;;;;;4967741;28;20889;-87
2024/01/29 01:51:39;;;;;;;8.37;4.13;;;;;;;;;;4967854;28;20622;-88
2024/01/29 01:54:44;;;;;;;8.90;4.43;;;;;;;;;;4956688;28;20547;-88
2024/01/29 01:57:49;;;;;;;10.23;5.53;;;;;;;;;;4979867;28;20538;-88
2024/01/29 02:01:03;;;;;;;8.90;6.10;;;;;;;;;;4967502;28;20594;-88
2024/01/29 02:04:08;;;;;;;9.07;5.87;;;;;;;;;;4978569;28;20543;-87
2024/01/29 02:07:13;;;;;;;10.30;5.97;;;;;;;;;;4979392;28;20539;-87
2024/01/29 02:10:17;;;;;;;7.67;5.40;;;;;;;;;;4978405;28;20539;-88
2024/01/29 02:13:22;;;;;;;8.33;5.53;;;;;;;;;;4956401;28;20543;-87
2024/01/29 02:16:26;;;;;;;7.40;5.20;;;;;;;;;;4956308;28;20539;-87
2024/01/29 02:19:30;;;;;;;8.37;5.00;;;;;;;;;;4944997;28;20599;-87
2024/01/29 02:22:48;;;;;;;10.73;5.70;;;;;;;;;;4966977;28;20625;-88
2024/01/29 02:25:52;;;;;;;8.27;5.13;;;;;;;;;;4967100;28;20535;-87
2024/01/29 02:28:57;;;;;;;8.43;4.63;;;;;;;;;;4955444;28;20539;-87
2024/01/29 02:32:01;;;;;;;7.90;4.93;;;;;;;;;;4978392;28;21194;-88
2024/01/29 02:35:05;;;;;;;6.43;4.47;;;;;;;;;;4967057;28;20539;-87
2024/01/29 02:38:09;;;;;;;8.03;4.47;;;;;;;;;;4955544;28;20538;-87
2024/01/29 02:41:14;;;;;;;7.83;4.60;;;;;;;;;;4966801;28;20658;-87
2024/01/29 02:44:18;;;;;;;7.00;3.93;;;;;;;;;;4955717;28;20885;-87
2024/01/29 02:47:23;;;;;;;8.30;4.27;;;;;;;;;;4977648;28;20543;-87
2024/01/29 02:50:29;;;;;;;10.27;4.40;;;;;;;;;;4944620;28;20876;-87
2024/01/29 02:53:33;;;;;;;12.43;4.60;;;;;;;;;;4966647;28;20543;-88
2024/01/29 02:56:37;;;;;;;7.60;3.90;;;;;;;;;;4951091;28;20543;-87
2024/01/29 02:59:41;;;;;;;5.67;4.40;;;;;;;;;;4972591;28;20599;-88
2024/01/29 03:02:45;;;;;;;7.27;3.90;;;;;;;;;;4966415;28;20625;-87
2024/01/29 03:05:50;;;;;;;8.17;4.57;;;;;;;;;;4966704;28;20535;-87
2024/01/29 03:08:54;;;;;;;6.07;3.77;;;;;;;;;;4966086;28;20542;-87
2024/01/29 03:11:58;;;;;;;5.57;4.20;;;;;;;;;;4977099;28;20633;-87
2024/01/29 03:15:03;;;;;;;5.60;4.17;;;;;;;;;;4966581;28;20543;-87
2024/01/29 03:18:07;;;;;;;6.77;4.50;;;;;;;;;;4955584;28;20550;-88
2024/01/29 03:21:13;;;;;;;7.23;4.53;;;;;;;;;;4954993;28;20654;-87
2024/01/29 03:24:17;;;;;;;8.80;5.23;;;;;;;;;;4944602;28;20542;-87
2024/01/29 03:27:21;;;;;;;7.83;4.67;;;;;;;;;;4965961;28;20543;-87
2024/01/29 03:30:26;;;;;;;6.00;4.30;;;;;;;;;;4954860;28;20889;-87
2024/01/29 03:33:30;;;;;;;8.67;4.77;;;;;;;;;;4965651;28;20547;-87
2024/01/29 03:36:34;;;;;;;5.00;3.90;;;;;;;;;;4965781;28;20547;-87
2024/01/29 03:39:39;;;;;;;5.03;4.13;;;;;;;;;;4955007;28;20539;-87
2024/01/29 03:42:43;;;;;;;5.87;4.17;;;;;;;;;;4965115;28;20622;-87
2024/01/29 03:45:47;;;;;;;6.60;3.93;;;;;;;;;;4966309;28;20539;-87
2024/01/29 03:48:52;;;;;;;5.73;3.83;;;;;;;;;;4965759;28;20543;-87
2024/01/29 03:51:56;;;;;;;5.53;4.07;;;;;;;;;;4943430;28;20614;-87
2024/01/29 03:55:00;;;;;;;7.73;4.03;;;;;;;;;;4954670;28;20542;-87
2024/01/29 03:58:04;;;;;;;5.20;3.67;;;;;;;;;;4954362;28;20551;-87
2024/01/29 04:01:08;;;;;;;9.17;4.30;;;;;;;;;;4965306;28;21221;-87
2024/01/29 04:04:12;;;;;;;6.87;4.27;;;;;;;;;;4976328;28;20543;-87
2024/01/29 04:07:16;;;;;;;7.83;4.20;;;;;;;;;;4965298;28;20542;-87
2024/01/29 04:10:20;;;;;;;5.87;3.97;;;;;;;;;;4965352;28;20539;-87
2024/01/29 04:13:24;;;;;;;8.07;4.60;;;;;;;;;;4955116;28;20546;-87
2024/01/29 04:16:29;;;;;;;6.27;4.20;;;;;;;;;;4956303;28;20551;-87
2024/01/29 04:19:33;;;;;;;6.13;4.00;;;;;;;;;;4977944;28;20542;-88
2024/01/29 04:22:39;;;;;;;6.90;4.83;;;;;;;;;;4978041;28;20611;-87
2024/01/29 04:25:43;;;;;;;6.20;4.27;;;;;;;;;;4966911;28;20542;-87
2024/01/29 04:28:47;;;;;;;6.00;4.30;;;;;;;;;;4966821;28;20538;-87
2024/01/29 04:31:51;;;;;;;8.50;4.43;;;;;;;;;;4966349;28;20614;-87
2024/01/29 04:34:56;;;;;;;5.47;4.17;;;;;;;;;;4966991;28;20546;-87
2024/01/29 04:38:01;;;;;;;8.20;3.93;;;;;;;;;;4956183;28;20551;-88
2024/01/29 04:41:05;;;;;;;7.43;4.00;;;;;;;;;;4973206;28;21000;-88
2024/01/29 04:44:09;;;;;;;4.40;3.77;;;;;;;;;;4977128;28;21079;-88
2024/01/29 04:47:13;;;;;;;6.60;3.90;;;;;;;;;;4966240;28;20546;-88
2024/01/29 04:50:18;;;;;;;7.20;4.10;;;;;;;;;;4954276;28;20881;-87
2024/01/29 04:53:22;;;;;;;7.00;3.83;;;;;;;;;;4956885;28;20543;-88
2024/01/29 04:56:26;;;;;;;7.60;4.40;;;;;;;;;;4969059;28;20546;-88
2024/01/29 04:59:31;;;;;;;5.70;4.27;;;;;;;;;;4968931;28;20885;-88
2024/01/29 05:02:37;;;;;;;6.27;3.97;;;;;;;;;;4958136;28;20614;-88
2024/01/29 05:05:41;;;;;;;6.03;4.23;;;;;;;;;;4957792;28;20551;-88
2024/01/29 05:08:47;;;;;;;5.53;4.30;;;;;;;;;;4980190;28;20554;-88
2024/01/29 05:11:50;;;;;;;6.63;4.77;;;;;;;;;;4968646;28;20649;-88
2024/01/29 05:14:55;;;;;;;8.87;4.53;;;;;;;;;;4969297;28;20889;-88
2024/01/29 05:17:58;;;;;;;7.57;4.83;;;;;;;;;;4979876;28;20551;-88
2024/01/29 05:21:04;;;;;;;9.67;5.50;;;;;;;;;;4957558;28;21217;-88
2024/01/29 05:24:08;;;;;;;9.23;5.20;;;;;;;;;;4968719;28;20889;-88
2024/01/29 05:27:13;;;;;;;7.87;4.17;;;;;;;;;;4946575;28;21082;-88
2024/01/29 05:30:17;;;;;;;7.20;4.10;;;;;;;;;;4946640;28;20551;-88
2024/01/29 05:33:25;;;;;;;6.47;4.00;;;;;;;;;;4957137;28;20555;-88
2024/01/29 05:36:29;;;;;;;6.60;4.83;;;;;;;;;;4957385;28;20542;-88
2024/01/29 05:39:34;;;;;;;5.27;4.20;;;;;;;;;;4967995;28;20551;-88
2024/01/29 05:42:38;;;;;;;6.40;4.10;;;;;;;;;;4956983;28;20943;-87
2024/01/29 05:45:43;;;;;;;7.43;4.67;;;;;;;;;;4968304;28;20547;-88
2024/01/29 05:48:49;;;;;;;6.07;4.30;;;;;;;;;;4968093;28;20896;-88
2024/01/29 05:51:54;;;;;;;8.97;4.30;;;;;;;;;;4946149;28;20629;-88
2024/01/29 05:54:58;;;;;;;8.93;4.27;;;;;;;;;;4957103;28;20543;-88
2024/01/29 05:58:03;;;;;;;6.70;4.60;;;;;;;;;;4967954;28;20892;-88
2024/01/29 06:01:07;;;;;;;7.73;4.50;;;;;;;;;;4968394;28;20646;-88
2024/01/29 06:04:12;;;;;;;7.23;4.23;;;;;;;;;;4956553;28;20543;-88
2024/01/29 06:07:16;;;;;;;6.97;4.47;;;;;;;;;;4967580;28;20542;-88
2024/01/29 06:10:21;;;;;;;6.77;4.50;;;;;;;;;;4946468;28;20543;-87
2024/01/29 06:13:27;;;;;;;7.03;4.40;;;;;;;;;;4979678;28;20539;-88
2024/01/29 06:16:32;;;;;;;7.53;4.23;;;;;;;;;;4956818;28;20543;-87
2024/01/29 06:19:36;;;;;;;10.20;3.83;;;;;;;;;;4945537;28;20539;-88
2024/01/29 06:22:43;;;;;;;6.80;4.33;;;;;;;;;;4982527;28;20666;-87
2024/01/29 06:25:47;;;;;;;9.73;4.30;;;;;;;;;;4973102;28;20551;-87
2024/01/29 06:28:51;;;;;;;6.03;4.30;;;;;;;;;;4945775;28;20546;-88
2024/01/29 06:31:55;;;;;;;8.97;4.53;;;;;;;;;;4956614;28;20626;-88
2024/01/29 06:34:59;;;;;;;7.80;4.07;;;;;;;;;;4967289;28;20896;-88
2024/01/29 06:38:04;;;;;;;10.70;4.67;;;;;;;;;;4979155;28;21127;-90
2024/01/29 06:41:08;;;;;;;10.17;4.13;;;;;;;;;;4956516;28;21244;-87
2024/01/29 06:44:15;;;;;;;8.50;4.60;;;;;;;;;;4978414;28;20539;-88
2024/01/29 06:47:19;;;;;;;6.30;4.27;;;;;;;;;;4945617;28;20546;-88
2024/01/29 06:50:24;;;;;;;6.80;4.67;;;;;;;;;;4945259;28;20881;-87
2024/01/29 06:53:28;;;;;;;10.80;4.93;;;;;;;;;;4978360;28;21111;-87
2024/01/29 06:56:33;;;;;;;8.47;4.73;;;;;;;;;;4967445;28;20539;-87
2024/01/29 06:59:37;;;;;;;7.93;5.07;;;;;;;;;;4956171;28;20551;-88
2024/01/29 07:02:42;;;;;;;7.77;4.70;;;;;;;;;;4955264;28;21230;-90
2024/01/29 07:05:56;;;;;;;10.40;6.13;;;;;;;;;;4944441;28;20550;-88
2024/01/29 07:09:01;;;;;;;9.67;5.60;;;;;;;;;;4956083;28;20554;-88
2024/01/29 07:12:06;;;;;;;8.57;5.60;;;;;;;;;;4955320;28;20649;-88
2024/01/29 07:15:10;;;;;;;7.27;5.70;;;;;;;;;;4965853;28;20588;-89
2024/01/29 07:19:11;;;;;;;8.10;5.30;;;;;;;;;;4955674;28;20567;-88
2024/01/29 07:22:19;;;;;;;7.97;5.33;;;;;;;;;;4955216;28;20658;-89
2024/01/29 07:25:23;;;;;;;8.00;5.03;;;;;;;;;;4956004;28;20547;-87
2024/01/29 07:28:27;;;;;;;7.30;4.87;;;;;;;;;;4955601;28;20885;-90
2024/01/29 08:36:48;;;;;;;10.30;6.07;;;;;;;;;;719623;23;22325;-85
2024/01/29 08:39:52;;;;;;;16.77;11.60;;;;;;;;;;4995567;28;20620;-89
2024/01/29 08:42:57;;;;;;;20.27;11.50;;;;;;;;;;4977259;28;20649;-89
2024/01/29 08:46:02;;;;;;;7.73;5.87;;;;;;;;;;4977722;28;20542;-89
2024/01/29 08:49:06;;;;;;;7.73;5.20;;;;;;;;;;4965905;28;20550;-90
2024/01/29 08:52:10;;;;;;;9.37;5.60;;;;;;;;;;4976913;28;20617;-91
2024/01/29 08:55:14;;;;;;;7.30;4.60;;;;;;;;;;4976793;28;20549;-87
2024/01/29 08:58:19;;;;;;;6.17;4.00;;;;;;;;;;4976571;28;20182;-86
2024/01/29 09:01:23;;;;;;;9.80;6.37;;;;;;;;;;4976416;28;20621;-87
2024/01/29 09:04:27;;;;;;;8.67;6.57;;;;;;;;;;4987969;28;20190;-88
2024/01/29 09:07:32;;;;;;;13.00;6.97;;;;;;;;;;4976470;28;20186;-90
2024/01/29 09:10:37;;;;;;;11.37;7.33;;;;;;;;;;4977632;28;20190;-90
2024/01/29 09:13:40;;;;;;;10.67;6.93;;;;;;;;;;4976506;28;20190;-90
2024/01/29 09:16:45;;;;;;;10.20;7.30;;;;;;;;;;4987370;28;20639;-89
2024/01/29 09:19:51;;;;;;;11.43;6.87;;;;;;;;;;4976343;28;20190;-90
2024/01/29 09:22:55;;;;;;;11.23;6.43;;;;;;;;;;4976383;28;20230;-90
2024/01/29 09:26:08;;;;;;;8.80;6.03;;;;;;;;;;4977296;28;20627;-90
2024/01/29 09:29:13;;;;;;;9.60;6.87;;;;;;;;;;4976279;28;20186;-87
2024/01/29 09:32:18;;;;;;;9.33;6.43;;;;;;;;;;4976144;28;20218;-91
2024/01/29 09:35:23;;;;;;;9.20;6.13;;;;;;;;;;4965499;28;20527;-90
2024/01/29 09:38:27;;;;;;;9.07;6.40;;;;;;;;;;4975121;28;20209;-90
2024/01/29 09:41:33;;;;;;;9.93;6.87;;;;;;;;;;4975601;28;20222;-92
2024/01/29 09:44:39;;;;;;;13.27;7.03;;;;;;;;;;4975752;28;20194;-91
2024/01/29 09:47:43;;;;;;;10.60;6.70;;;;;;;;;;4965510;28;20186;-91
2024/01/29 09:50:50;;;;;;;11.07;6.70;;;;;;;;;;4976700;28;20524;-91
2024/01/29 09:53:54;;;;;;;9.67;6.07;;;;;;;;;;4976215;28;20182;-91
2024/01/29 09:56:59;;;;;;;9.83;7.03;;;;;;;;;;4977192;28;20524;-92
2024/01/29 10:00:04;;;;;;;8.43;5.90;;;;;;;;;;4987044;28;20183;-91
2024/01/29 10:03:25;;;;;;;10.67;6.10;;;;;;;;;;4976571;28;20206;-91
2024/01/29 10:06:29;;;;;;;8.83;6.23;;;;;;;;;;4964835;28;20187;-91
2024/01/29 10:09:33;;;;;;;10.57;6.00;;;;;;;;;;4987096;28;20186;-92
2024/01/29 10:12:37;;;;;;;8.90;5.80;;;;;;;;;;4987019;28;20218;-90
2024/01/29 10:15:42;;;;;;;6.93;5.33;;;;;;;;;;4965265;28;20190;-90
2024/01/29 10:18:56;;;;;;;9.13;5.73;;;;;;;;;;4965004;28;20186;-90
2024/01/29 10:22:00;;;;;;;8.97;5.90;;;;;;;;;;4975880;28;20222;-90
2024/01/29 10:25:05;;;;;;;6.70;4.30;;;;;;;;;;4976175;28;20190;-90
2024/01/29 10:28:10;;;;;;;7.13;4.17;;;;;;;;;;4975538;28;20182;-91
2024/01/29 10:31:15;;;;;;;7.00;4.33;;;;;;;;;;4976740;28;20222;-91
2024/01/29 10:34:23;;;;;;;8.93;4.83;;;;;;;;;;4976048;28;20182;-92
2024/01/29 10:37:28;;;;;;;7.27;4.70;;;;;;;;;;4965608;28;20218;-91
2024/01/29 10:40:34;;;;;;;7.90;4.70;;;;;;;;;;4976023;28;20186;-91
2024/01/29 10:43:41;;;;;;;8.47;5.00;;;;;;;;;;4975590;28;20210;-92
2024/01/29 10:46:47;;;;;;;8.43;5.00;;;;;;;;;;4976142;28;20202;-91
2024/01/29 10:49:53;;;;;;;7.67;4.97;;;;;;;;;;4986878;28;20182;-91
2024/01/29 10:52:59;;;;;;;8.43;4.67;;;;;;;;;;4974803;28;20582;-88
2024/01/29 10:56:06;;;;;;;7.17;4.60;;;;;;;;;;4964077;28;20231;-90
2024/01/29 11:27:59;;;;;;;5.43;3.93;;;;;;;;;;4995520;28;20224;-94
2024/01/29 11:31:12;;;;;;;5.33;3.80;;;;;;;;;;4965907;28;20226;-93
2024/01/29 11:34:16;;;;;;;6.03;3.83;;;;;;;;;;4976094;28;20182;-94
2024/01/29 11:37:28;;;;;;;4.67;3.60;;;;;;;;;;4987510;28;20551;-93
2024/01/29 11:40:53;;;;;;;4.43;3.37;;;;;;;;;;4969216;28;20178;-94
2024/01/29 11:44:00;;;;;;;6.80;3.50;;;;;;;;;;4985988;28;20209;-92
2024/01/29 11:47:08;;;;;;;3.27;2.77;;;;;;;;;;4963676;28;20186;-91
2024/01/29 11:50:21;;;;;;;5.47;2.67;;;;;;;;;;4974950;28;20183;-90
2024/01/29 11:53:25;;;;;;;3.07;2.70;;;;;;;;;;4962556;28;20182;-92
2024/01/29 11:56:29;;;;;;;4.40;3.00;;;;;;;;;;4963291;28;20194;-89
2024/01/29 11:59:43;;;;;;;3.93;3.10;;;;;;;;;;4961885;28;20623;-88
2024/01/29 12:02:49;;;;;;;5.73;2.90;;;;;;;;;;4973123;28;20226;-90
2024/01/29 12:05:56;;;;;;;5.73;3.10;;;;;;;;;;4963440;28;20191;-89
2024/01/29 12:09:00;;;;;;;4.87;2.43;;;;;;;;;;4964436;28;20186;-89
2024/01/29 12:12:07;;;;;;;4.97;2.70;;;;;;;;;;4972645;28;20587;-89
2024/01/29 12:15:12;;;;;;;4.13;2.90;;;;;;;;;;4972852;28;20615;-89
2024/01/29 12:18:18;;;;;;;4.80;2.63;;;;;;;;;;4962522;28;20190;-89
2024/01/29 12:21:22;;;;;;;5.37;2.83;;;;;;;;;;4972763;28;20225;-89
2024/01/29 12:24:27;;;;;;;6.47;2.80;;;;;;;;;;4961787;28;20209;-89
2024/01/29 12:27:31;;;;;;;5.70;2.97;;;;;;;;;;4981503;28;20217;-89
2024/01/29 12:30:37;;;;;;;4.93;2.83;;;;;;;;;;4974862;28;20190;-89
2024/01/29 12:33:46;;;;;;;4.93;2.90;;;;;;;;;;4974164;28;20521;-89
2024/01/29 12:36:53;;;;;;;4.03;2.80;;;;;;;;;;4974787;28;20178;-89
2024/01/29 12:39:57;;;;;;;4.97;2.83;;;;;;;;;;4985852;28;20178;-90
2024/01/29 12:43:03;;;;;;;7.73;3.10;;;;;;;;;;4984317;28;20225;-88
2024/01/29 12:56:11;;;;;;;4.63;2.90;;;;;;;;;;4961703;29;20638;-90
2024/01/29 12:59:15;;;;;;;4.20;3.00;;;;;;;;;;4934303;28;20184;-89
2024/01/29 13:02:20;;;;;;;3.90;2.60;;;;;;;;;;4972990;28;20714;-91
2024/01/29 13:05:25;;;;;;;5.50;2.93;;;;;;;;;;4975006;28;20172;-89
2024/01/29 13:08:30;;;;;;;5.07;2.80;;;;;;;;;;4974180;28;20199;-89
2024/01/29 13:11:36;;;;;;;3.30;2.80;;;;;;;;;;4985609;28;20222;-89
2024/01/29 13:14:42;;;;;;;6.87;3.67;;;;;;;;;;4976835;28;20182;-89
2024/01/29 13:17:49;;;;;;;5.70;2.87;;;;;;;;;;4976939;28;20186;-90
2024/01/29 13:20:54;;;;;;;6.67;2.77;;;;;;;;;;4979159;28;20190;-90
2024/01/29 13:24:00;;;;;;;6.53;3.00;;;;;;;;;;4978336;28;20214;-89
2024/01/29 13:27:04;;;;;;;4.20;3.00;;;;;;;;;;4977394;28;20222;-90
2024/01/29 13:30:09;;;;;;;5.10;2.60;;;;;;;;;;4977174;28;20190;-91
2024/01/29 13:33:14;;;;;;;2.83;2.47;;;;;;;;;;4988057;28;20191;-90
2024/01/29 13:36:18;;;;;;;3.37;2.57;;;;;;;;;;4988018;28;20186;-91
2024/01/29 13:39:22;;;;;;;3.60;2.60;;;;;;;;;;4988325;28;20213;-89
2024/01/29 13:42:27;;;;;;;5.53;2.90;;;;;;;;;;4976940;28;20230;-90
2024/01/29 13:45:31;;;;;;;4.33;2.37;;;;;;;;;;4976927;28;20175;-90
2024/01/29 13:48:36;;;;;;;4.30;3.27;;;;;;;;;;4976638;28;20194;-90
2024/01/29 13:51:40;;;;;;;3.83;3.13;;;;;;;;;;4976074;28;20701;-90
2024/01/29 13:54:44;;;;;;;4.87;2.67;;;;;;;;;;4976086;28;20186;-91
2024/01/29 13:57:48;;;;;;;3.60;1.97;;;;;;;;;;4986656;28;20190;-90
2024/01/29 14:00:57;;;;;;;3.53;2.13;;;;;;;;;;4985770;28;20186;-89
2024/01/29 14:04:47;;;;;;;2.73;2.00;;;;;;;;;;5006025;28;20222;-92
2024/01/29 14:09:08;;;;;;;4.20;2.10;;;;;;;;;;4960246;29;20215;-91
2024/01/29 14:12:13;;;;;;;4.23;2.23;;;;;;;;;;4968199;28;20217;-91
2024/01/29 14:15:18;;;;;;;3.93;1.87;;;;;;;;;;4988286;28;20182;-91
2024/01/29 14:18:22;;;;;;;3.03;1.80;;;;;;;;;;4978570;28;20179;-91
2024/01/29 14:21:26;;;;;;;2.30;1.70;;;;;;;;;;4977771;28;20698;-91
2024/01/29 14:24:32;;;;;;;4.83;2.57;;;;;;;;;;4976069;28;20217;-91
2024/01/29 14:27:37;;;;;;;7.03;3.43;;;;;;;;;;4966819;28;20213;-92
2024/01/29 14:30:43;;;;;;;7.03;2.83;;;;;;;;;;4976923;28;20186;-92
2024/01/29 14:33:47;;;;;;;3.47;2.53;;;;;;;;;;4975642;28;20551;-91
2024/01/29 14:36:51;;;;;;;12.97;5.37;;;;;;;;;;4988756;28;20194;-91
2024/01/29 14:39:55;;;;;;;10.33;4.43;;;;;;;;;;4975736;28;20193;-87
2024/01/29 15:18:53;;;;;;;8.63;5.27;;;;;;;;;;4965131;28;20179;-93
2024/01/29 15:21:57;;;;;;;7.43;5.13;;;;;;;;;;4944738;29;20227;-92
2024/01/29 15:25:05;;;;;;;9.63;6.07;;;;;;;;;;4945260;29;20215;-92
2024/01/29 15:28:09;;;;;;;8.27;5.87;;;;;;;;;;4933077;29;20526;-91
2024/01/29 15:31:13;;;;;;;10.30;6.30;;;;;;;;;;4944048;29;20223;-89
2024/01/29 15:34:18;;;;;;;8.53;5.83;;;;;;;;;;4954476;29;20187;-89
2024/01/29 15:37:23;;;;;;;11.47;6.20;;;;;;;;;;4953569;29;20192;-89
2024/01/29 15:40:28;;;;;;;11.27;6.37;;;;;;;;;;4943236;29;20184;-90
2024/01/29 15:43:35;;;;;;;10.53;6.33;;;;;;;;;;4931907;29;20656;-90
2024/01/29 15:46:45;;;;;;;9.37;6.10;;;;;;;;;;4943074;29;20184;-90
2024/01/29 15:49:51;;;;;;;9.53;6.30;;;;;;;;;;4943174;29;20184;-89
2024/01/29 15:52:55;;;;;;;9.90;6.03;;;;;;;;;;4942037;29;20226;-89
2024/01/29 15:56:01;;;;;;;9.20;5.87;;;;;;;;;;4943042;29;20184;-91
2024/01/29 15:59:05;;;;;;;11.50;6.67;;;;;;;;;;4944206;29;20188;-92
2024/01/29 16:02:09;;;;;;;13.63;6.73;;;;;;;;;;4953065;29;20227;-92
2024/01/29 16:05:14;;;;;;;12.07;6.87;;;;;;;;;;4941646;29;20215;-92
2024/01/29 16:08:18;;;;;;;10.17;5.97;;;;;;;;;;4953353;29;20196;-93
2024/01/29 16:11:23;;;;;;;17.07;6.80;;;;;;;;;;4942146;29;20218;-89
2024/01/29 16:14:27;;;;;;;11.93;5.90;;;;;;;;;;4942753;29;20207;-89
2024/01/29 16:17:31;;;;;;;10.33;5.90;;;;;;;;;;4954005;29;20183;-90
2024/01/29 16:20:41;;;;;;;9.40;5.83;;;;;;;;;;4942937;29;20191;-90
2024/01/29 16:23:45;;;;;;;8.50;5.57;;;;;;;;;;4942840;29;20196;-90
2024/01/29 16:26:49;;;;;;;11.50;4.77;;;;;;;;;;4941740;29;20188;-90
2024/01/29 16:29:55;;;;;;;6.47;3.93;;;;;;;;;;4942141;29;20192;-89
2024/01/29 16:32:59;;;;;;;6.13;3.80;;;;;;;;;;4930604;29;20222;-89
2024/01/29 16:36:03;;;;;;;6.73;3.80;;;;;;;;;;4942701;29;20188;-89
2024/01/29 16:39:07;;;;;;;5.80;3.43;;;;;;;;;;4953220;29;20192;-89
2024/01/29 16:42:12;;;;;;;5.80;3.47;;;;;;;;;;4941469;29;20219;-90
2024/01/29 16:45:16;;;;;;;6.40;3.70;;;;;;;;;;4941059;29;20692;-89
2024/01/29 16:48:21;;;;;;;6.93;3.40;;;;;;;;;;4942207;28;20191;-89
2024/01/29 16:51:26;;;;;;;5.70;3.50;;;;;;;;;;4955635;29;20587;-89
2024/01/29 16:54:30;;;;;;;6.10;3.63;;;;;;;;;;4955644;29;20179;-89
2024/01/29 16:57:35;;;;;;;6.10;3.90;;;;;;;;;;4944392;29;20188;-90
2024/01/29 17:00:39;;;;;;;7.00;3.57;;;;;;;;;;4944972;29;20199;-89
2024/01/29 17:03:43;;;;;;;6.87;3.70;;;;;;;;;;4943962;29;20187;-90
2024/01/29 17:06:47;;;;;;;5.67;3.97;;;;;;;;;;4942829;29;20191;-90
2024/01/29 17:09:51;;;;;;;9.10;4.03;;;;;;;;;;4943019;29;20188;-87
2024/01/29 17:12:56;;;;;;;6.57;3.83;;;;;;;;;;4930729;29;20239;-90
2024/01/29 17:16:00;;;;;;;7.73;4.30;;;;;;;;;;4942218;29;20184;-91
2024/01/29 17:19:04;;;;;;;7.13;3.80;;;;;;;;;;4942613;29;20184;-91
2024/01/29 17:22:08;;;;;;;7.13;4.30;;;;;;;;;;4942324;29;20227;-91
2024/01/29 17:25:13;;;;;;;5.53;3.20;;;;;;;;;;4943022;29;20216;-91
2024/01/29 17:28:19;;;;;;;5.43;4.10;;;;;;;;;;4947660;29;20188;-90
2024/01/29 17:31:24;;;;;;;7.00;4.20;;;;;;;;;;4952791;29;20223;-90
2024/01/29 17:34:28;;;;;;;10.50;4.60;;;;;;;;;;4942784;29;20183;-89
2024/01/29 17:37:32;;;;;;;9.13;5.53;;;;;;;;;;4940971;29;20648;-89
2024/01/29 17:40:37;;;;;;;6.20;4.57;;;;;;;;;;4930778;29;20191;-89
2024/01/29 17:43:41;;;;;;;6.63;4.17;;;;;;;;;;4940364;29;20188;-90
2024/01/29 17:46:46;;;;;;;8.87;4.60;;;;;;;;;;4951007;29;20180;-89
2024/01/29 17:49:50;;;;;;;6.83;4.17;;;;;;;;;;4940204;29;20187;-89
2024/01/29 17:52:54;;;;;;;7.53;4.27;;;;;;;;;;4939489;29;20227;-88
2024/01/29 17:55:59;;;;;;;6.60;3.97;;;;;;;;;;4940874;29;20192;-88
2024/01/29 17:59:04;;;;;;;9.70;4.10;;;;;;;;;;4952322;28;20188;-88
2024/01/29 18:02:08;;;;;;;6.53;4.13;;;;;;;;;;4950911;29;20227;-88
2024/01/29 18:05:13;;;;;;;8.87;4.27;;;;;;;;;;4949579;29;20684;-88
2024/01/29 18:08:18;;;;;;;9.27;5.17;;;;;;;;;;4961077;29;20195;-88
2024/01/29 18:11:24;;;;;;;7.27;4.37;;;;;;;;;;4952290;29;20228;-89
2024/01/29 18:14:28;;;;;;;6.77;4.60;;;;;;;;;;4949986;29;20223;-87
2024/01/29 18:17:33;;;;;;;7.10;4.43;;;;;;;;;;4939489;29;20188;-88
2024/01/29 18:20:37;;;;;;;7.87;4.70;;;;;;;;;;4949765;29;20192;-88
2024/01/29 18:23:42;;;;;;;9.80;5.17;;;;;;;;;;4939797;29;20196;-88
2024/01/29 18:26:46;;;;;;;8.53;4.73;;;;;;;;;;4939137;29;20184;-88
2024/01/29 18:29:51;;;;;;;8.10;4.50;;;;;;;;;;4938878;29;20192;-89
2024/01/29 18:32:55;;;;;;;6.27;4.10;;;;;;;;;;4939417;29;20231;-88
2024/01/29 18:35:59;;;;;;;8.87;4.87;;;;;;;;;;4949230;29;20659;-88
2024/01/29 18:39:03;;;;;;;9.80;5.37;;;;;;;;;;4938751;29;20191;-88
2024/01/29 18:42:08;;;;;;;9.50;5.17;;;;;;;;;;4960172;29;20223;-89
2024/01/29 18:45:13;;;;;;;9.30;5.70;;;;;;;;;;4937781;29;20216;-89
2024/01/29 18:48:29;;;;;;;9.17;5.00;;;;;;;;;;4948275;29;20195;-89
2024/01/29 18:51:33;;;;;;;9.30;4.63;;;;;;;;;;4959949;29;20704;-88
2024/01/29 18:54:38;;;;;;;8.30;4.83;;;;;;;;;;4938784;29;20192;-89
2024/01/29 18:57:42;;;;;;;6.73;4.20;;;;;;;;;;4949141;29;20544;-90
2024/01/29 19:00:46;;;;;;;8.17;5.10;;;;;;;;;;4938921;29;20633;-87
2024/01/29 19:03:51;;;;;;;6.63;4.90;;;;;;;;;;4950148;29;20188;-87
2024/01/29 19:06:55;;;;;;;7.63;4.70;;;;;;;;;;4939116;29;20536;-88
2024/01/29 19:09:59;;;;;;;7.00;4.67;;;;;;;;;;4938361;29;20187;-86
2024/01/29 19:13:04;;;;;;;7.93;5.30;;;;;;;;;;4949790;29;20238;-87
2024/01/29 19:16:08;;;;;;;11.23;6.33;;;;;;;;;;4938012;29;20637;-86
2024/01/29 19:19:15;;;;;;;9.47;5.57;;;;;;;;;;4937516;29;20191;-87
2024/01/29 19:22:19;;;;;;;7.80;5.53;;;;;;;;;;4937301;29;20227;-87
2024/01/29 19:25:23;;;;;;;8.37;5.13;;;;;;;;;;4937508;29;20215;-87
2024/01/29 19:28:28;;;;;;;8.70;4.63;;;;;;;;;;4936190;29;20184;-86
2024/01/29 19:31:32;;;;;;;9.73;5.70;;;;;;;;;;4957839;29;20627;-87
2024/01/29 19:34:37;;;;;;;10.40;4.93;;;;;;;;;;4926554;29;20548;-87
2024/01/29 19:37:41;;;;;;;10.00;5.37;;;;;;;;;;4952911;29;20187;-87
2024/01/29 19:40:45;;;;;;;10.50;5.27;;;;;;;;;;4948789;29;20544;-87
2024/01/29 19:43:49;;;;;;;10.20;5.17;;;;;;;;;;4958600;29;21088;-87
2024/01/29 19:46:53;;;;;;;9.37;5.17;;;;;;;;;;4958218;29;20607;-87
2024/01/29 19:49:58;;;;;;;11.47;5.70;;;;;;;;;;4958155;29;20545;-86
2024/01/29 19:53:03;;;;;;;9.17;6.27;;;;;;;;;;4958572;29;21195;-87
2024/01/29 19:56:07;;;;;;;11.90;7.17;;;;;;;;;;4947303;29;20544;-86
2024/01/29 19:59:11;;;;;;;11.67;6.77;;;;;;;;;;4946509;29;20209;-87
2024/01/29 20:02:16;;;;;;;17.23;7.90;;;;;;;;;;4947055;29;20623;-87
2024/01/29 20:05:21;;;;;;;14.67;7.90;;;;;;;;;;4946825;29;20223;-86
2024/01/29 20:08:27;;;;;;;18.00;8.60;;;;;;;;;;4958085;29;20195;-87
2024/01/29 20:11:32;;;;;;;14.27;8.30;;;;;;;;;;4936164;29;20623;-86
2024/01/29 20:14:36;;;;;;;14.23;8.10;;;;;;;;;;4935513;29;20607;-87
2024/01/29 20:17:40;;;;;;;12.97;7.87;;;;;;;;;;4947128;29;20539;-86
2024/01/29 20:20:44;;;;;;;14.23;8.53;;;;;;;;;;4946826;29;20544;-86
2024/01/29 20:23:50;;;;;;;12.60;7.90;;;;;;;;;;4949051;29;20559;-87
2024/01/29 20:26:55;;;;;;;11.70;7.20;;;;;;;;;;4961999;29;20599;-87
2024/01/29 20:30:02;;;;;;;9.73;6.50;;;;;;;;;;4951126;29;20539;-87
2024/01/29 20:33:07;;;;;;;10.87;6.50;;;;;;;;;;4929751;29;20603;-87
2024/01/29 20:36:12;;;;;;;9.23;6.30;;;;;;;;;;4940180;29;20543;-86
2024/01/29 20:39:16;;;;;;;10.33;6.40;;;;;;;;;;4939961;29;20559;-87
2024/01/29 20:42:21;;;;;;;11.53;6.57;;;;;;;;;;4950463;29;20622;-87
2024/01/29 20:45:28;;;;;;;10.27;6.30;;;;;;;;;;4949925;29;21147;-86
2024/01/29 20:48:35;;;;;;;12.77;6.93;;;;;;;;;;4950519;29;20878;-86